Time;durP1;ratioP1;P1;durP2;ratioP2;P2;SDS_P1;SDS_P2;PMS_P1;PMS_P2;Temp;Humidity;BMP_temperature;BMP_pressure;BME280_temperature;BME280_humidity;BME280_pressure;Samples;Min_cycle;Max_cycle;Signal;HPM_P1;HPM_P2
2022/10/05 00:00:15;;;;;;;10.80;7.93;;;;;;;;;;5005933;28;20035;-79
2022/10/05 00:02:40;;;;;;;12.02;7.53;;;;;;;;;;5005304;28;20021;-79
2022/10/05 00:05:16;;;;;;;14.23;7.32;;;;;;;;;;4997268;28;20736;-80
2022/10/05 00:07:41;;;;;;;12.23;6.85;;;;;;;;;;4990325;28;20860;-79
2022/10/05 00:10:12;;;;;;;9.63;7.20;;;;;;;;;;5011321;28;20081;-77
2022/10/05 00:12:37;;;;;;;15.48;7.22;;;;;;;;;;4998431;28;20030;-78
2022/10/05 00:15:09;;;;;;;21.20;8.25;;;;;;;;;;4995695;28;20057;-78
2022/10/05 00:17:34;;;;;;;8.82;6.72;;;;;;;;;;4996660;28;20083;-78
2022/10/05 00:19:59;;;;;;;8.73;6.93;;;;;;;;;;4994543;28;20939;-77
2022/10/05 00:22:29;;;;;;;17.70;8.13;;;;;;;;;;4997189;28;21150;-78
2022/10/05 00:24:56;;;;;;;18.77;7.95;;;;;;;;;;4996390;28;20272;-80
2022/10/05 00:27:23;;;;;;;10.82;7.70;;;;;;;;;;4995713;28;20017;-78
2022/10/05 00:29:49;;;;;;;13.75;8.48;;;;;;;;;;4995392;28;20075;-76
2022/10/05 00:32:15;;;;;;;13.95;8.10;;;;;;;;;;4985645;28;20022;-79
2022/10/05 00:34:41;;;;;;;10.65;8.38;;;;;;;;;;4994817;28;20743;-76
2022/10/05 00:37:06;;;;;;;10.30;7.50;;;;;;;;;;4990829;28;20562;-79
2022/10/05 00:39:33;;;;;;;13.50;7.53;;;;;;;;;;4992862;28;20875;-78
2022/10/05 00:42:08;;;;;;;8.57;6.80;;;;;;;;;;4997370;28;20881;-79
2022/10/05 00:44:33;;;;;;;14.20;7.82;;;;;;;;;;4996332;28;20579;-80
2022/10/05 00:47:01;;;;;;;12.20;8.03;;;;;;;;;;4999688;28;20025;-79
2022/10/05 00:49:40;;;;;;;10.68;7.97;;;;;;;;;;4997797;28;20079;-78
2022/10/05 00:52:05;;;;;;;11.05;6.95;;;;;;;;;;4994512;28;20547;-79
2022/10/05 00:54:40;;;;;;;16.63;8.80;;;;;;;;;;4996177;28;20028;-79
2022/10/05 00:57:25;;;;;;;17.17;8.27;;;;;;;;;;4996846;28;20282;-79
2022/10/05 00:59:50;;;;;;;13.43;8.20;;;;;;;;;;4995433;28;20909;-77
2022/10/05 01:02:31;;;;;;;14.33;8.37;;;;;;;;;;4996968;28;20025;-79
2022/10/05 01:05:03;;;;;;;13.80;7.72;;;;;;;;;;4996665;28;20729;-78
2022/10/05 01:07:33;;;;;;;11.15;7.90;;;;;;;;;;4997132;28;20017;-79
2022/10/05 01:10:04;;;;;;;19.75;7.88;;;;;;;;;;4997729;28;20133;-78
2022/10/05 01:12:49;;;;;;;10.93;7.28;;;;;;;;;;4991748;28;20022;-79
2022/10/05 01:15:19;;;;;;;19.55;8.27;;;;;;;;;;4994165;28;20666;-79
2022/10/05 01:17:48;;;;;;;14.35;7.53;;;;;;;;;;4988837;28;20022;-79
2022/10/05 01:20:19;;;;;;;10.98;7.65;;;;;;;;;;4986777;28;20806;-78
2022/10/05 01:23:04;;;;;;;11.60;7.78;;;;;;;;;;4991959;28;20029;-79
2022/10/05 01:25:29;;;;;;;;;;;;;;;;;;4997957;28;20041;-78
2022/10/05 01:28:03;;;;;;;12.68;7.90;;;;;;;;;;4994929;28;20027;-79
2022/10/05 01:30:36;;;;;;;11.17;7.73;;;;;;;;;;4997299;28;20030;-76
2022/10/05 01:33:15;;;;;;;12.98;7.43;;;;;;;;;;4985616;28;20030;-77
2022/10/05 01:35:55;;;;;;;14.60;8.40;;;;;;;;;;4990200;28;20017;-79
2022/10/05 01:38:39;;;;;;;13.38;7.50;;;;;;;;;;4994672;28;20032;-79
2022/10/05 01:41:14;;;;;;;11.63;7.50;;;;;;;;;;4986021;28;20021;-78
2022/10/05 01:43:39;;;;;;;;;;;;;;;;;;4988513;28;20035;-77
2022/10/05 01:46:13;;;;;;;12.02;6.97;;;;;;;;;;4999296;28;19909;-78
2022/10/05 01:48:38;;;;;;;7.90;6.22;;;;;;;;;;4980691;28;20136;-78
2022/10/05 01:51:16;;;;;;;9.45;6.55;;;;;;;;;;4993016;28;20798;-79
2022/10/05 01:53:41;;;;;;;8.52;6.28;;;;;;;;;;4991852;28;20060;-80
2022/10/05 01:56:19;;;;;;;10.10;6.47;;;;;;;;;;5003696;28;20862;-79
2022/10/05 01:59:02;;;;;;;10.40;6.35;;;;;;;;;;4992250;28;20284;-79
2022/10/05 02:01:28;;;;;;;9.57;6.10;;;;;;;;;;4993809;28;20032;-79
2022/10/05 02:03:57;;;;;;;9.47;6.63;;;;;;;;;;4993623;28;20029;-79
2022/10/05 02:06:25;;;;;;;18.70;7.45;;;;;;;;;;4995813;28;20275;-77
2022/10/05 02:08:53;;;;;;;9.82;6.32;;;;;;;;;;4995041;28;20895;-76
2022/10/05 02:11:18;;;;;;;12.40;6.80;;;;;;;;;;4995213;28;20049;-78
2022/10/05 02:13:54;;;;;;;14.00;6.45;;;;;;;;;;4995191;28;20956;-77
2022/10/05 02:16:40;;;;;;;13.95;6.55;;;;;;;;;;5000191;28;20833;-77
2022/10/05 02:19:05;;;;;;;9.48;6.07;;;;;;;;;;4997965;28;20023;-79
2022/10/05 02:21:32;;;;;;;9.50;6.43;;;;;;;;;;4996380;28;20021;-78
2022/10/05 02:24:00;;;;;;;8.95;6.38;;;;;;;;;;4994273;28;20280;-76
2022/10/05 02:26:26;;;;;;;9.55;6.47;;;;;;;;;;4995684;28;20037;-78
2022/10/05 02:28:53;;;;;;;9.23;5.85;;;;;;;;;;4997021;28;20095;-78
2022/10/05 02:31:21;;;;;;;8.90;5.88;;;;;;;;;;4982532;28;20017;-80
2022/10/05 02:33:46;;;;;;;8.20;6.20;;;;;;;;;;4995372;28;20018;-79
2022/10/05 02:36:13;;;;;;;9.80;6.85;;;;;;;;;;4995286;28;20048;-77
2022/10/05 02:38:53;;;;;;;8.43;6.10;;;;;;;;;;5001798;28;20021;-79
2022/10/05 02:41:50;;;;;;;6.85;5.82;;;;;;;;;;5005882;28;20863;-80
2022/10/05 02:44:19;;;;;;;7.35;5.93;;;;;;;;;;4987891;28;20041;-79
2022/10/05 02:46:58;;;;;;;8.80;6.55;;;;;;;;;;4995447;28;20021;-76
2022/10/05 02:49:56;;;;;;;11.93;6.47;;;;;;;;;;4995769;28;20125;-76
2022/10/05 02:52:40;;;;;;;10.70;5.78;;;;;;;;;;4971953;28;20033;-73
2022/10/05 02:55:26;;;;;;;8.63;6.50;;;;;;;;;;4996482;28;20136;-79
2022/10/05 02:58:01;;;;;;;12.32;7.78;;;;;;;;;;4992886;28;20152;-78
2022/10/05 03:00:26;;;;;;;;;;;;;;;;;;4995153;28;20091;-79
2022/10/05 03:03:03;;;;;;;11.40;6.30;;;;;;;;;;4980847;28;20402;-79
2022/10/05 03:05:29;;;;;;;10.07;6.60;;;;;;;;;;4984721;28;20029;-78
2022/10/05 03:08:05;;;;;;;10.73;7.00;;;;;;;;;;5004783;28;20013;-82
2022/10/05 03:10:42;;;;;;;8.55;6.53;;;;;;;;;;4981847;28;20048;-81
2022/10/05 03:13:40;;;;;;;14.10;7.47;;;;;;;;;;4980285;28;20036;-80
2022/10/05 03:16:21;;;;;;;12.88;6.38;;;;;;;;;;4969283;28;20030;-81
2022/10/05 03:19:05;;;;;;;10.57;7.60;;;;;;;;;;4993379;28;20812;-79
2022/10/05 03:21:40;;;;;;;8.02;6.00;;;;;;;;;;5006188;28;20064;-80
2022/10/05 03:24:05;;;;;;;;;;;;;;;;;;4989545;28;20099;-80
2022/10/05 03:26:48;;;;;;;9.07;6.90;;;;;;;;;;5001433;28;19913;-79
2022/10/05 03:29:13;;;;;;;12.98;7.53;;;;;;;;;;4995443;28;20810;-79
2022/10/05 03:31:44;;;;;;;14.47;8.30;;;;;;;;;;4989604;28;20029;-81
2022/10/05 03:34:11;;;;;;;8.10;6.22;;;;;;;;;;5005387;28;20027;-79
2022/10/05 03:36:46;;;;;;;9.65;6.75;;;;;;;;;;4995492;28;20033;-78
2022/10/05 03:39:11;;;;;;;;;;;;;;;;;;4999330;28;20026;-81
2022/10/05 03:41:59;;;;;;;10.73;6.37;;;;;;;;;;5013336;28;20868;-79
2022/10/05 03:44:42;;;;;;;7.95;6.03;;;;;;;;;;5002529;28;20021;-78
2022/10/05 03:47:20;;;;;;;9.00;7.05;;;;;;;;;;5000256;28;20030;-80
2022/10/05 03:49:53;;;;;;;9.18;6.68;;;;;;;;;;5002021;28;20136;-78
2022/10/05 03:52:37;;;;;;;12.48;7.07;;;;;;;;;;5001084;28;20083;-80
2022/10/05 03:55:14;;;;;;;10.13;6.43;;;;;;;;;;5001383;28;20929;-82
2022/10/05 03:57:39;;;;;;;10.23;6.22;;;;;;;;;;5001171;28;20870;-80
2022/10/05 04:00:11;;;;;;;11.70;6.82;;;;;;;;;;5001798;28;20025;-79
2022/10/05 04:02:40;;;;;;;10.13;7.18;;;;;;;;;;5003476;28;20037;-80
2022/10/05 04:05:08;;;;;;;9.02;7.00;;;;;;;;;;5002410;28;20022;-79
2022/10/05 04:07:45;;;;;;;8.88;6.32;;;;;;;;;;5001736;28;20029;-77
2022/10/05 04:10:22;;;;;;;9.02;6.57;;;;;;;;;;5002890;28;20881;-80
2022/10/05 04:12:51;;;;;;;8.38;6.93;;;;;;;;;;5000019;28;20132;-77
2022/10/05 04:15:27;;;;;;;9.50;7.75;;;;;;;;;;5003869;28;20029;-81
2022/10/05 04:18:13;;;;;;;15.77;6.75;;;;;;;;;;5008173;28;20838;-76
2022/10/05 04:20:43;;;;;;;10.27;7.43;;;;;;;;;;4995678;28;20828;-71
2022/10/05 04:23:09;;;;;;;9.82;6.82;;;;;;;;;;5012480;28;20021;-78
2022/10/05 04:25:47;;;;;;;13.23;6.93;;;;;;;;;;5004314;28;20025;-78
2022/10/05 04:28:25;;;;;;;8.48;6.45;;;;;;;;;;5001683;28;20032;-75
2022/10/05 04:30:52;;;;;;;10.68;7.18;;;;;;;;;;5001163;28;20129;-77
2022/10/05 04:33:17;;;;;;;12.52;7.43;;;;;;;;;;5005999;28;20080;-77
2022/10/05 04:35:42;;;;;;;7.38;5.80;;;;;;;;;;5001673;28;20132;-77
2022/10/05 04:38:13;;;;;;;13.03;7.10;;;;;;;;;;5001105;28;20032;-76
2022/10/05 04:40:42;;;;;;;8.50;6.32;;;;;;;;;;4992586;28;20288;-73
2022/10/05 04:43:12;;;;;;;14.68;7.35;;;;;;;;;;5009648;28;20863;-77
2022/10/05 04:45:55;;;;;;;8.07;6.68;;;;;;;;;;5005009;28;20877;-77
2022/10/05 04:48:24;;;;;;;10.73;7.90;;;;;;;;;;5005566;28;20041;-75
2022/10/05 04:50:58;;;;;;;9.50;6.88;;;;;;;;;;5001249;28;20049;-76
2022/10/05 04:53:29;;;;;;;12.05;7.25;;;;;;;;;;5002919;28;20049;-76
2022/10/05 04:56:08;;;;;;;10.20;6.40;;;;;;;;;;5001626;28;20173;-75
2022/10/05 04:58:36;;;;;;;9.23;7.13;;;;;;;;;;5000237;28;20025;-77
2022/10/05 05:01:20;;;;;;;8.73;6.97;;;;;;;;;;5001712;28;20952;-75
2022/10/05 05:03:45;;;;;;;9.50;6.03;;;;;;;;;;5002678;28;20033;-77
2022/10/05 05:06:31;;;;;;;7.25;6.47;;;;;;;;;;5000864;28;20017;-75
2022/10/05 05:09:11;;;;;;;9.23;6.07;;;;;;;;;;5000976;28;20067;-74
2022/10/05 05:11:55;;;;;;;8.38;5.95;;;;;;;;;;4997215;28;20033;-75
2022/10/05 05:14:20;;;;;;;8.05;6.07;;;;;;;;;;5000975;28;20120;-73
2022/10/05 05:17:01;;;;;;;11.85;6.32;;;;;;;;;;5001550;28;20017;-74
2022/10/05 05:19:50;;;;;;;9.07;5.97;;;;;;;;;;5000664;28;20029;-73
2022/10/05 05:22:24;;;;;;;7.72;6.07;;;;;;;;;;5003759;28;20099;-73
2022/10/05 05:24:49;;;;;;;;;;;;;;;;;;5010056;28;20132;-74
2022/10/05 05:27:37;;;;;;;9.10;5.53;;;;;;;;;;5001861;28;19916;-75
2022/10/05 05:30:05;;;;;;;6.20;4.70;;;;;;;;;;5003093;28;20029;-78
2022/10/05 05:32:39;;;;;;;8.95;5.57;;;;;;;;;;5008015;28;20033;-74
2022/10/05 05:35:07;;;;;;;11.20;5.45;;;;;;;;;;5011982;28;20387;-77
2022/10/05 05:37:45;;;;;;;12.88;5.90;;;;;;;;;;4997927;28;20980;-78
2022/10/05 05:40:10;;;;;;;10.07;5.20;;;;;;;;;;4999644;28;20091;-77
2022/10/05 05:42:39;;;;;;;9.13;4.47;;;;;;;;;;5011688;28;20029;-77
2022/10/05 05:45:15;;;;;;;6.90;5.28;;;;;;;;;;5000756;28;20032;-80
2022/10/05 05:47:43;;;;;;;9.77;5.95;;;;;;;;;;5001258;28;20126;-77
2022/10/05 05:50:17;;;;;;;9.35;5.40;;;;;;;;;;4992476;28;20056;-77
2022/10/05 05:52:45;;;;;;;12.25;5.40;;;;;;;;;;5003343;28;20029;-78
2022/10/05 05:55:17;;;;;;;6.60;4.57;;;;;;;;;;4993196;28;20124;-77
2022/10/05 05:57:51;;;;;;;8.05;5.00;;;;;;;;;;4991247;28;20040;-77
2022/10/05 06:00:21;;;;;;;10.05;4.43;;;;;;;;;;4987613;28;20040;-79
2022/10/05 06:02:53;;;;;;;5.72;4.28;;;;;;;;;;4989860;28;20013;-76
2022/10/05 06:05:27;;;;;;;7.53;4.95;;;;;;;;;;4985441;28;20053;-78
2022/10/05 06:07:52;;;;;;;;;;;;;;;;;;4996821;28;20928;-75
2022/10/05 06:10:25;;;;;;;8.45;4.40;;;;;;;;;;4994070;28;19968;-76
2022/10/05 06:12:51;;;;;;;5.95;4.00;;;;;;;;;;4993078;28;20017;-78
2022/10/05 06:15:22;;;;;;;6.57;4.15;;;;;;;;;;4995522;28;20009;-79
2022/10/05 06:17:51;;;;;;;5.05;3.83;;;;;;;;;;4994768;28;20017;-78
2022/10/05 06:20:26;;;;;;;4.72;3.70;;;;;;;;;;4992445;28;20128;-79
2022/10/05 06:22:53;;;;;;;7.00;4.35;;;;;;;;;;4996057;28;20124;-77
2022/10/05 06:25:18;;;;;;;7.47;5.20;;;;;;;;;;4991599;28;20403;-76
2022/10/05 06:27:56;;;;;;;14.45;4.80;;;;;;;;;;4992001;28;20041;-76
2022/10/05 06:30:21;;;;;;;10.15;4.22;;;;;;;;;;4990862;28;20057;-78
2022/10/05 06:32:49;;;;;;;5.97;4.07;;;;;;;;;;4990756;28;20032;-80
2022/10/05 06:35:14;;;;;;;8.48;4.75;;;;;;;;;;4986299;28;20021;-80
2022/10/05 06:37:59;;;;;;;5.55;3.70;;;;;;;;;;4992502;28;20086;-76
2022/10/05 06:40:40;;;;;;;7.38;4.55;;;;;;;;;;4992260;28;20796;-82
2022/10/05 06:43:08;;;;;;;5.63;3.90;;;;;;;;;;4992299;28;20083;-77
2022/10/05 06:45:47;;;;;;;9.70;4.38;;;;;;;;;;4978171;28;20839;-78
2022/10/05 06:48:31;;;;;;;6.07;3.53;;;;;;;;;;4975540;28;20037;-78
2022/10/05 06:51:05;;;;;;;8.40;3.83;;;;;;;;;;4990531;28;20021;-78
2022/10/05 06:53:30;;;;;;;7.32;4.35;;;;;;;;;;4992804;28;20785;-77
2022/10/05 06:56:06;;;;;;;10.60;3.88;;;;;;;;;;5026816;28;20020;-77
2022/10/05 06:58:40;;;;;;;7.43;3.30;;;;;;;;;;4984118;28;20083;-77
2022/10/05 07:01:14;;;;;;;8.20;3.40;;;;;;;;;;5017933;28;20053;-80
2022/10/05 07:03:47;;;;;;;5.97;3.53;;;;;;;;;;5008178;28;20887;-76
2022/10/05 07:06:17;;;;;;;4.50;3.33;;;;;;;;;;5012032;28;20025;-79
2022/10/05 07:09:00;;;;;;;5.95;3.78;;;;;;;;;;4992052;28;20021;-77
2022/10/05 07:11:47;;;;;;;6.55;3.63;;;;;;;;;;5026399;28;20017;-77
2022/10/05 07:14:16;;;;;;;5.88;3.65;;;;;;;;;;5011002;28;20086;-76
2022/10/05 07:17:07;;;;;;;6.30;3.60;;;;;;;;;;5027709;28;20017;-78
2022/10/05 07:19:51;;;;;;;6.35;3.75;;;;;;;;;;5009615;28;20023;-79
2022/10/05 07:22:31;;;;;;;4.90;3.55;;;;;;;;;;5015811;28;20020;-80
2022/10/05 07:24:57;;;;;;;6.93;3.50;;;;;;;;;;5026577;28;20032;-79
2022/10/05 07:27:24;;;;;;;4.97;3.55;;;;;;;;;;4995609;28;20028;-79
2022/10/05 07:29:58;;;;;;;8.02;4.20;;;;;;;;;;5026589;28;20009;-81
2022/10/05 07:32:23;;;;;;;6.93;3.65;;;;;;;;;;4986158;28;20025;-78
2022/10/05 07:34:57;;;;;;;5.00;3.13;;;;;;;;;;5008571;28;20025;-79
2022/10/05 07:40:21;;;;;;;7.47;3.47;;;;;;;;;;5009479;28;20156;-79
2022/10/05 07:43:02;;;;;;;6.60;3.33;;;;;;;;;;5030657;28;20017;-78
2022/10/05 07:45:34;;;;;;;7.32;3.45;;;;;;;;;;5026815;28;20024;-78
2022/10/05 07:48:04;;;;;;;4.40;2.95;;;;;;;;;;4997375;28;20013;-79
2022/10/05 07:50:35;;;;;;;8.13;3.35;;;;;;;;;;4994922;28;20078;-80
2022/10/05 07:53:13;;;;;;;7.40;3.38;;;;;;;;;;4993934;28;20021;-80
2022/10/05 07:55:56;;;;;;;5.82;3.10;;;;;;;;;;4994003;28;20032;-78
2022/10/05 07:58:30;;;;;;;5.53;3.70;;;;;;;;;;4986807;28;20031;-79
2022/10/05 08:01:03;;;;;;;5.35;2.83;;;;;;;;;;4993791;28;20021;-77
2022/10/05 08:03:32;;;;;;;4.50;2.90;;;;;;;;;;4996269;28;20056;-76
2022/10/05 08:05:59;;;;;;;5.65;3.13;;;;;;;;;;4993659;28;20024;-78
2022/10/05 08:08:37;;;;;;;10.20;3.20;;;;;;;;;;5009979;28;20075;-78
2022/10/05 08:11:21;;;;;;;6.90;3.50;;;;;;;;;;4997064;28;20029;-78
2022/10/05 08:14:01;;;;;;;6.07;3.30;;;;;;;;;;5026013;28;20016;-78
2022/10/05 08:16:29;;;;;;;5.57;3.35;;;;;;;;;;5028098;28;20025;-77
2022/10/05 08:19:00;;;;;;;5.63;3.10;;;;;;;;;;5010882;28;20036;-79
2022/10/05 08:21:37;;;;;;;3.42;2.38;;;;;;;;;;5027366;28;20099;-79
2022/10/05 08:24:17;;;;;;;4.82;3.35;;;;;;;;;;4999976;28;20921;-83
2022/10/05 08:26:42;;;;;;;6.13;2.72;;;;;;;;;;5030177;28;20032;-79
2022/10/05 08:29:30;;;;;;;10.77;3.40;;;;;;;;;;5004124;28;20023;-84
2022/10/05 08:31:58;;;;;;;7.95;2.97;;;;;;;;;;5019796;28;20073;-82
2022/10/05 08:34:29;;;;;;;10.45;3.25;;;;;;;;;;5002605;28;20028;-79
2022/10/05 08:36:58;;;;;;;5.03;3.22;;;;;;;;;;5015412;28;20035;-80
2022/10/05 08:39:25;;;;;;;4.95;2.83;;;;;;;;;;5001427;28;20032;-82
2022/10/05 08:42:06;;;;;;;6.07;3.47;;;;;;;;;;4997876;28;20029;-78
2022/10/05 08:44:34;;;;;;;5.05;2.80;;;;;;;;;;5034556;28;20139;-80
2022/10/05 08:47:15;;;;;;;10.77;2.78;;;;;;;;;;5033312;28;20123;-81
2022/10/05 08:49:40;;;;;;;4.75;2.53;;;;;;;;;;5019910;28;20147;-70
2022/10/05 08:52:25;;;;;;;4.43;2.47;;;;;;;;;;5017257;28;20027;-79
2022/10/05 08:54:56;;;;;;;4.15;2.65;;;;;;;;;;5034961;28;20017;-82
2022/10/05 08:57:24;;;;;;;4.53;2.42;;;;;;;;;;5007594;28;20137;-75
2022/10/05 09:00:16;;;;;;;5.53;2.45;;;;;;;;;;5018503;28;20088;-79
2022/10/05 09:02:44;;;;;;;5.57;2.65;;;;;;;;;;5013399;28;20041;-80
2022/10/05 09:05:28;;;;;;;3.20;2.08;;;;;;;;;;4999742;28;20747;-78
2022/10/05 09:08:24;;;;;;;5.72;2.75;;;;;;;;;;4996119;28;20029;-77
2022/10/05 09:10:58;;;;;;;3.33;1.95;;;;;;;;;;4997937;28;20036;-78
2022/10/05 09:13:30;;;;;;;5.73;2.13;;;;;;;;;;5015662;28;20029;-76
2022/10/05 09:16:22;;;;;;;3.75;1.85;;;;;;;;;;5016074;28;20020;-80
2022/10/05 09:19:14;;;;;;;4.50;1.90;;;;;;;;;;5009115;28;20148;-78
2022/10/05 09:21:42;;;;;;;6.40;2.60;;;;;;;;;;4991992;28;20028;-79
2022/10/05 09:24:14;;;;;;;3.75;2.00;;;;;;;;;;5052723;28;20025;-76
2022/10/05 09:26:39;;;;;;;4.55;2.33;;;;;;;;;;5000695;28;20021;-79
2022/10/05 09:29:19;;;;;;;12.23;2.40;;;;;;;;;;5033379;28;20029;-76
2022/10/05 09:31:54;;;;;;;6.55;2.22;;;;;;;;;;5013306;28;20894;-78
2022/10/05 09:34:48;;;;;;;3.72;1.85;;;;;;;;;;5034938;28;20021;-82
2022/10/05 09:37:13;;;;;;;4.97;2.72;;;;;;;;;;4972956;28;20148;-78
2022/10/05 09:39:50;;;;;;;3.03;1.93;;;;;;;;;;5003126;28;20017;-76
2022/10/05 09:42:15;;;;;;;4.57;2.13;;;;;;;;;;4993375;28;20296;-76
2022/10/05 09:44:59;;;;;;;4.47;2.17;;;;;;;;;;5033459;28;20091;-73
2022/10/05 09:47:27;;;;;;;3.88;2.03;;;;;;;;;;5002555;28;20052;-76
2022/10/05 09:50:02;;;;;;;3.70;2.10;;;;;;;;;;5033777;28;20057;-76
2022/10/05 09:52:39;;;;;;;4.38;2.38;;;;;;;;;;5032382;28;20227;-75
2022/10/05 09:55:24;;;;;;;4.18;2.70;;;;;;;;;;5032930;28;20021;-77
2022/10/05 09:58:09;;;;;;;4.82;2.20;;;;;;;;;;5027612;28;20032;-75
2022/10/05 10:00:34;;;;;;;;;;;;;;;;;;5016889;28;20029;-75
2022/10/05 10:03:11;;;;;;;4.22;2.20;;;;;;;;;;5026894;28;19966;-75
2022/10/05 10:05:39;;;;;;;5.95;2.35;;;;;;;;;;5013896;28;20025;-75
2022/10/05 10:08:12;;;;;;;4.65;2.25;;;;;;;;;;5009922;28;20331;-75
2022/10/05 10:10:51;;;;;;;3.47;1.90;;;;;;;;;;5023196;28;20148;-74
2022/10/05 10:13:16;;;;;;;4.65;1.90;;;;;;;;;;5019590;28;20033;-76
2022/10/05 10:15:56;;;;;;;4.13;2.30;;;;;;;;;;5037762;28;20032;-73
2022/10/05 10:18:31;;;;;;;8.00;2.25;;;;;;;;;;5010873;28;20294;-77
2022/10/05 10:21:15;;;;;;;13.18;2.38;;;;;;;;;;5020112;28;20031;-76
2022/10/05 10:23:43;;;;;;;10.15;1.88;;;;;;;;;;5041891;28;20033;-75
2022/10/05 10:26:13;;;;;;;2.75;1.55;;;;;;;;;;5028538;28;20888;-76
2022/10/05 10:28:41;;;;;;;6.55;2.13;;;;;;;;;;5027200;28;20029;-76
2022/10/05 10:31:12;;;;;;;4.38;1.85;;;;;;;;;;5039790;28;20025;-74
2022/10/05 10:33:58;;;;;;;5.63;1.50;;;;;;;;;;5030312;28;20140;-79
2022/10/05 10:36:23;;;;;;;4.50;2.00;;;;;;;;;;5000803;28;20052;-77
2022/10/05 10:38:58;;;;;;;6.77;2.63;;;;;;;;;;5011158;28;20029;-75
2022/10/05 10:41:52;;;;;;;3.78;1.80;;;;;;;;;;5026981;28;20040;-77
2022/10/05 10:44:33;;;;;;;11.15;1.83;;;;;;;;;;5015089;28;20048;-76
2022/10/05 10:47:17;;;;;;;4.95;2.00;;;;;;;;;;5022479;28;20113;-76
2022/10/05 10:49:45;;;;;;;3.22;1.80;;;;;;;;;;5011765;28;20009;-73
2022/10/05 10:52:20;;;;;;;2.80;1.95;;;;;;;;;;5028170;28;20228;-74
2022/10/05 10:54:45;;;;;;;7.00;1.70;;;;;;;;;;5008219;28;20034;-74
2022/10/05 10:57:14;;;;;;;4.40;1.80;;;;;;;;;;5039615;28;20028;-75
2022/10/05 10:59:43;;;;;;;3.60;1.52;;;;;;;;;;5004816;28;21162;-75
2022/10/05 11:02:27;;;;;;;4.35;1.77;;;;;;;;;;5023351;28;20127;-76
2022/10/05 11:05:07;;;;;;;5.40;2.07;;;;;;;;;;5024012;28;20071;-77
2022/10/05 11:07:51;;;;;;;6.05;2.20;;;;;;;;;;5035857;28;20024;-75
2022/10/05 11:10:17;;;;;;;4.05;2.35;;;;;;;;;;5042224;28;20025;-74
2022/10/05 11:12:43;;;;;;;8.32;2.33;;;;;;;;;;5041117;28;20494;-78
2022/10/05 11:15:27;;;;;;;5.05;1.73;;;;;;;;;;5007076;28;20844;-76
2022/10/05 11:17:59;;;;;;;5.80;1.85;;;;;;;;;;5026034;28;20087;-75
2022/10/05 11:20:38;;;;;;;7.05;2.30;;;;;;;;;;5040073;28;20029;-75
2022/10/05 11:23:22;;;;;;;4.45;1.73;;;;;;;;;;4992427;28;20037;-76
2022/10/05 11:25:54;;;;;;;7.85;1.88;;;;;;;;;;5017866;28;20874;-75
2022/10/05 11:28:29;;;;;;;7.72;1.85;;;;;;;;;;5006448;28;20444;-77
2022/10/05 11:31:00;;;;;;;3.20;1.67;;;;;;;;;;5045618;28;20136;-77
2022/10/05 11:33:29;;;;;;;3.63;1.92;;;;;;;;;;5034033;28;20028;-73
2022/10/05 11:36:02;;;;;;;3.60;1.77;;;;;;;;;;5035177;28;20156;-77
2022/10/05 11:38:35;;;;;;;4.93;1.58;;;;;;;;;;5006070;28;20013;-76
2022/10/05 11:41:21;;;;;;;3.05;1.40;;;;;;;;;;5003439;28;20052;-76
2022/10/05 11:44:05;;;;;;;9.23;1.80;;;;;;;;;;5032568;28;20029;-74
2022/10/05 11:46:30;;;;;;;3.97;1.40;;;;;;;;;;5028453;28;20115;-78
2022/10/05 11:48:56;;;;;;;3.45;1.38;;;;;;;;;;5056451;28;20467;-79
2022/10/05 11:51:33;;;;;;;3.35;1.40;;;;;;;;;;5010695;28;20607;-75
2022/10/05 11:54:16;;;;;;;3.92;1.73;;;;;;;;;;5035062;28;20025;-75
2022/10/05 11:56:43;;;;;;;4.10;1.67;;;;;;;;;;5030187;28;20032;-76
2022/10/05 11:59:19;;;;;;;4.80;1.30;;;;;;;;;;5010501;28;20824;-78
2022/10/05 12:01:45;;;;;;;4.88;1.70;;;;;;;;;;5011189;28;20075;-74
2022/10/05 12:04:29;;;;;;;4.30;1.87;;;;;;;;;;5036887;28;20865;-83
2022/10/05 12:07:01;;;;;;;6.07;1.85;;;;;;;;;;5043115;28;20096;-74
2022/10/05 12:09:36;;;;;;;3.92;1.67;;;;;;;;;;5027672;28;20016;-79
2022/10/05 12:12:31;;;;;;;3.85;1.63;;;;;;;;;;5045444;28;20032;-78
2022/10/05 12:15:09;;;;;;;3.38;1.85;;;;;;;;;;4986899;28;20057;-76
2022/10/05 12:17:40;;;;;;;4.97;1.40;;;;;;;;;;5010824;28;20086;-78
2022/10/05 12:20:11;;;;;;;5.05;1.67;;;;;;;;;;5028413;28;20035;-80
2022/10/05 12:22:38;;;;;;;12.23;2.10;;;;;;;;;;5012984;28;20037;-78
2022/10/05 12:25:13;;;;;;;4.13;1.88;;;;;;;;;;5020326;28;20029;-76
2022/10/05 12:27:41;;;;;;;6.97;1.92;;;;;;;;;;5058387;28;20491;-78
2022/10/05 12:30:09;;;;;;;3.17;1.70;;;;;;;;;;5013657;28;20020;-81
2022/10/05 12:32:34;;;;;;;4.35;1.58;;;;;;;;;;5049002;28;20537;-82
2022/10/05 12:35:03;;;;;;;13.90;2.43;;;;;;;;;;5007313;28;20029;-73
2022/10/05 12:37:52;;;;;;;3.65;1.30;;;;;;;;;;5028917;28;20108;-76
2022/10/05 12:40:20;;;;;;;6.00;1.90;;;;;;;;;;5027472;28;20226;-75
2022/10/05 12:42:49;;;;;;;3.63;1.58;;;;;;;;;;5044192;28;20390;-76
2022/10/05 12:45:33;;;;;;;6.97;2.50;;;;;;;;;;5042924;28;20514;-76
2022/10/05 12:48:01;;;;;;;6.93;1.85;;;;;;;;;;5017135;28;20017;-75
2022/10/05 12:50:31;;;;;;;3.88;1.27;;;;;;;;;;5042759;28;20025;-75
2022/10/05 12:52:56;;;;;;;4.38;1.88;;;;;;;;;;5018486;28;20115;-77
2022/10/05 12:55:24;;;;;;;5.43;1.60;;;;;;;;;;5044698;28;20788;-75
2022/10/05 12:57:53;;;;;;;8.55;2.45;;;;;;;;;;5042586;28;20818;-79
2022/10/05 13:00:18;;;;;;;3.63;1.60;;;;;;;;;;5020955;28;20029;-75
2022/10/05 13:02:49;;;;;;;6.07;1.88;;;;;;;;;;5031860;28;20036;-73
2022/10/05 13:05:21;;;;;;;3.58;1.42;;;;;;;;;;4997695;28;20071;-76
2022/10/05 13:08:01;;;;;;;5.45;1.25;;;;;;;;;;5039746;28;20025;-78
2022/10/05 13:10:50;;;;;;;7.65;1.95;;;;;;;;;;5030436;28;20029;-73
2022/10/05 13:13:15;;;;;;;5.60;1.90;;;;;;;;;;5010860;28;20043;-74
2022/10/05 13:15:46;;;;;;;5.00;1.53;;;;;;;;;;5026881;28;21523;-82
2022/10/05 13:18:31;;;;;;;7.15;1.70;;;;;;;;;;5039661;28;20040;-83
2022/10/05 13:21:01;;;;;;;4.07;1.55;;;;;;;;;;5056146;28;20024;-80
2022/10/05 13:23:39;;;;;;;10.93;1.85;;;;;;;;;;5060216;28;20029;-78
2022/10/05 13:26:17;;;;;;;5.53;2.17;;;;;;;;;;5051205;28;20028;-77
2022/10/05 13:28:42;;;;;;;4.22;1.73;;;;;;;;;;5051490;28;20028;-78
2022/10/05 13:31:27;;;;;;;7.60;1.80;;;;;;;;;;5037967;28;20491;-76
2022/10/05 13:33:53;;;;;;;6.55;1.60;;;;;;;;;;5038497;28;20279;-77
2022/10/05 13:36:37;;;;;;;6.33;2.03;;;;;;;;;;5050253;28;20570;-73
2022/10/05 13:39:08;;;;;;;11.45;2.75;;;;;;;;;;5041968;28;20075;-79
2022/10/05 13:41:33;;;;;;;5.05;1.63;;;;;;;;;;5037437;28;20036;-78
2022/10/05 13:44:12;;;;;;;12.03;1.70;;;;;;;;;;5062593;28;20013;-75
2022/10/05 13:46:48;;;;;;;16.90;1.83;;;;;;;;;;5066508;28;20110;-73
2022/10/05 13:49:13;;;;;;;7.80;1.85;;;;;;;;;;5031398;28;20460;-75
2022/10/05 13:51:42;;;;;;;5.83;1.80;;;;;;;;;;5051431;28;20032;-71
2022/10/05 13:54:27;;;;;;;4.65;1.55;;;;;;;;;;5032853;28;20025;-75
2022/10/05 13:56:57;;;;;;;13.52;2.13;;;;;;;;;;5033529;28;20468;-76
2022/10/05 13:59:22;;;;;;;9.13;2.20;;;;;;;;;;5045860;28;20017;-73
2022/10/05 14:02:04;;;;;;;12.17;1.97;;;;;;;;;;5050298;28;20017;-74
2022/10/05 14:04:41;;;;;;;7.68;2.17;;;;;;;;;;5054271;28;20017;-75
2022/10/05 14:07:19;;;;;;;6.20;2.00;;;;;;;;;;5032428;28;20021;-74
2022/10/05 14:09:47;;;;;;;6.45;1.77;;;;;;;;;;5064979;28;20032;-76
2022/10/05 14:12:17;;;;;;;7.30;2.13;;;;;;;;;;5025209;28;20017;-76
2022/10/05 14:14:44;;;;;;;6.85;2.50;;;;;;;;;;5054696;28;20541;-75
2022/10/05 14:17:15;;;;;;;6.78;1.83;;;;;;;;;;5032535;28;20486;-74
2022/10/05 14:19:47;;;;;;;5.10;1.90;;;;;;;;;;5048451;28;20104;-76
2022/10/05 14:22:23;;;;;;;10.93;2.78;;;;;;;;;;5050899;28;20057;-75
2022/10/05 14:25:06;;;;;;;3.97;1.63;;;;;;;;;;5028561;28;20033;-75
2022/10/05 14:27:50;;;;;;;6.97;1.60;;;;;;;;;;5067249;28;20021;-73
2022/10/05 14:30:19;;;;;;;5.55;1.70;;;;;;;;;;5044809;28;20072;-76
2022/10/05 14:32:50;;;;;;;3.45;1.60;;;;;;;;;;5036141;28;20079;-73
2022/10/05 14:35:22;;;;;;;6.57;1.65;;;;;;;;;;5032172;28;20024;-73
2022/10/05 14:37:49;;;;;;;4.07;1.70;;;;;;;;;;5052099;28;20046;-73
2022/10/05 14:40:31;;;;;;;9.82;1.88;;;;;;;;;;5033497;28;20021;-75
2022/10/05 14:42:58;;;;;;;4.90;1.90;;;;;;;;;;5047799;28;20032;-73
2022/10/05 14:45:28;;;;;;;4.72;1.60;;;;;;;;;;5032787;28;20039;-73
2022/10/05 14:48:01;;;;;;;2.83;1.25;;;;;;;;;;5048346;28;20116;-75
2022/10/05 14:50:30;;;;;;;6.50;2.35;;;;;;;;;;5051392;28;20033;-73
2022/10/05 14:53:01;;;;;;;4.93;1.80;;;;;;;;;;5045980;28;20024;-73
2022/10/05 14:55:40;;;;;;;4.38;2.08;;;;;;;;;;5046862;28;20029;-73
2022/10/05 14:58:26;;;;;;;6.55;1.70;;;;;;;;;;5052881;28;20497;-72
2022/10/05 15:00:55;;;;;;;3.80;2.03;;;;;;;;;;5068045;28;20356;-74
2022/10/05 15:03:44;;;;;;;3.75;1.58;;;;;;;;;;5020640;28;20020;-73
2022/10/05 15:06:29;;;;;;;7.13;1.92;;;;;;;;;;5035834;28;20025;-72
2022/10/05 15:08:55;;;;;;;13.95;2.38;;;;;;;;;;5050521;28;20428;-71
2022/10/05 15:11:39;;;;;;;5.00;1.53;;;;;;;;;;5065387;28;20032;-74
2022/10/05 15:14:24;;;;;;;3.15;1.50;;;;;;;;;;5048646;28;20370;-74
2022/10/05 15:16:54;;;;;;;4.25;2.03;;;;;;;;;;5038271;28;20029;-71
2022/10/05 15:19:38;;;;;;;5.53;2.10;;;;;;;;;;5048383;28;20025;-80
2022/10/05 15:22:22;;;;;;;8.25;2.40;;;;;;;;;;5046576;28;20036;-76